sensor_id;sensor_type;location;lat;lon;timestamp;pressure;altitude;pressure_sealevel;temperature;humidity
48553;BME280;34335;51.566;6.994;2022-12-07T00:00:46;101109.41;;;3.18;100.00
48553;BME280;34335;51.566;6.994;2022-12-07T00:03:11;101117.94;;;3.17;100.00
48553;BME280;34335;51.566;6.994;2022-12-07T00:05:37;101119.81;;;3.21;100.00
48553;BME280;34335;51.566;6.994;2022-12-07T00:08:02;101117.25;;;3.21;100.00
48553;BME280;34335;51.566;6.994;2022-12-07T00:10:27;101114.66;;;3.21;100.00
48553;BME280;34335;51.566;6.994;2022-12-07T00:12:52;101112.19;;;3.24;100.00
48553;BME280;34335;51.566;6.994;2022-12-07T00:15:18;101113.31;;;3.32;100.00
48553;BME280;34335;51.566;6.994;2022-12-07T00:17:43;101110.50;;;3.24;100.00
48553;BME280;34335;51.566;6.994;2022-12-07T00:20:08;101105.25;;;3.21;100.00
48553;BME280;34335;51.566;6.994;2022-12-07T00:22:34;101109.69;;;3.25;100.00
48553;BME280;34335;51.566;6.994;2022-12-07T00:24:59;101115.03;;;3.32;100.00
48553;BME280;34335;51.566;6.994;2022-12-07T00:27:24;101108.91;;;3.28;100.00
48553;BME280;34335;51.566;6.994;2022-12-07T00:29:50;101107.28;;;3.30;100.00
48553;BME280;34335;51.566;6.994;2022-12-07T00:32:15;101105.63;;;3.32;100.00
48553;BME280;34335;51.566;6.994;2022-12-07T00:34:40;101101.31;;;3.31;100.00
48553;BME280;34335;51.566;6.994;2022-12-07T00:37:05;101097.88;;;3.31;100.00
48553;BME280;34335;51.566;6.994;2022-12-07T00:39:31;101094.59;;;3.35;100.00
48553;BME280;34335;51.566;6.994;2022-12-07T00:41:56;101090.34;;;3.37;100.00
48553;BME280;34335;51.566;6.994;2022-12-07T00:44:21;101093.69;;;3.34;100.00
48553;BME280;34335;51.566;6.994;2022-12-07T00:46:46;101100.72;;;3.38;100.00
48553;BME280;34335;51.566;6.994;2022-12-07T00:49:12;101101.56;;;3.39;100.00
48553;BME280;34335;51.566;6.994;2022-12-07T00:51:37;101097.38;;;3.41;100.00
48553;BME280;34335;51.566;6.994;2022-12-07T00:54:02;101100.72;;;3.38;100.00
48553;BME280;34335;51.566;6.994;2022-12-07T00:56:29;101098.19;;;3.40;100.00
48553;BME280;34335;51.566;6.994;2022-12-07T00:58:57;101094.09;;;3.45;100.00
48553;BME280;34335;51.566;6.994;2022-12-07T01:01:24;101090.50;;;3.41;100.00
48553;BME280;34335;51.566;6.994;2022-12-07T01:03:49;101086.25;;;3.42;100.00
48553;BME280;34335;51.566;6.994;2022-12-07T01:06:17;101077.78;;;3.45;100.00
48553;BME280;34335;51.566;6.994;2022-12-07T01:08:42;101087.13;;;3.42;100.00
48553;BME280;34335;51.566;6.994;2022-12-07T01:11:11;101074.38;;;3.46;100.00
48553;BME280;34335;51.566;6.994;2022-12-07T01:13:37;101064.88;;;3.43;100.00
48553;BME280;34335;51.566;6.994;2022-12-07T01:16:04;101071.81;;;3.46;100.00
48553;BME280;34335;51.566;6.994;2022-12-07T01:18:31;101072.63;;;3.45;100.00
48553;BME280;34335;51.566;6.994;2022-12-07T01:21:09;101074.38;;;3.46;100.00
48553;BME280;34335;51.566;6.994;2022-12-07T01:23:35;101074.22;;;3.41;100.00
48553;BME280;34335;51.566;6.994;2022-12-07T01:26:05;101087.91;;;3.40;100.00
48553;BME280;34335;51.566;6.994;2022-12-07T01:28:30;101084.53;;;3.42;100.00
48553;BME280;34335;51.566;6.994;2022-12-07T01:30:58;101084.47;;;3.39;100.00
48553;BME280;34335;51.566;6.994;2022-12-07T01:33:24;101090.47;;;3.40;100.00
48553;BME280;34335;51.566;6.994;2022-12-07T01:35:49;101082.88;;;3.43;100.00
48553;BME280;34335;51.566;6.994;2022-12-07T01:38:14;101087.28;;;3.47;100.00
48553;BME280;34335;51.566;6.994;2022-12-07T01:40:40;101092.09;;;3.38;100.00
48553;BME280;34335;51.566;6.994;2022-12-07T01:43:16;101091.25;;;3.37;100.00
48553;BME280;34335;51.566;6.994;2022-12-07T01:45:43;101089.50;;;3.36;100.00
48553;BME280;34335;51.566;6.994;2022-12-07T01:48:09;101090.09;;;3.29;100.00
48553;BME280;34335;51.566;6.994;2022-12-07T01:50:36;101084.03;;;3.27;100.00
48553;BME280;34335;51.566;6.994;2022-12-07T01:53:05;101090.00;;;3.26;100.00
48553;BME280;34335;51.566;6.994;2022-12-07T01:55:32;101090.81;;;3.25;100.00
48553;BME280;34335;51.566;6.994;2022-12-07T01:57:57;101092.50;;;3.24;100.00
48553;BME280;34335;51.566;6.994;2022-12-07T02:00:23;101092.44;;;3.23;100.00
48553;BME280;34335;51.566;6.994;2022-12-07T02:03:19;101084.81;;;3.24;100.00
48553;BME280;34335;51.566;6.994;2022-12-07T02:05:47;101077.88;;;3.22;100.00
48553;BME280;34335;51.566;6.994;2022-12-07T02:08:14;101074.53;;;3.24;100.00
48553;BME280;34335;51.566;6.994;2022-12-07T02:10:39;101081.34;;;3.24;100.00
48553;BME280;34335;51.566;6.994;2022-12-07T02:13:16;101074.53;;;3.24;100.00
48553;BME280;34335;51.566;6.994;2022-12-07T02:16:03;101071.88;;;3.23;100.00
48553;BME280;34335;51.566;6.994;2022-12-07T02:21:20;101073.22;;;3.11;100.00
48553;BME280;34335;51.566;6.994;2022-12-07T02:24:15;101072.22;;;3.08;100.00
48553;BME280;34335;51.566;6.994;2022-12-07T02:29:37;101073.09;;;3.08;100.00
48553;BME280;34335;51.566;6.994;2022-12-07T02:32:18;101078.78;;;3.00;100.00
48553;BME280;34335;51.566;6.994;2022-12-07T02:34:54;101079.50;;;2.95;100.00
48553;BME280;34335;51.566;6.994;2022-12-07T02:37:29;101075.88;;;2.90;100.00
48553;BME280;34335;51.566;6.994;2022-12-07T02:40:06;101074.88;;;2.87;100.00
48553;BME280;34335;51.566;6.994;2022-12-07T02:42:46;101077.16;;;2.79;100.00
48553;BME280;34335;51.566;6.994;2022-12-07T02:45:14;101076.25;;;2.77;100.00
48553;BME280;34335;51.566;6.994;2022-12-07T02:47:41;101079.69;;;2.77;100.00
48553;BME280;34335;51.566;6.994;2022-12-07T02:50:07;101078.06;;;2.79;100.00
48553;BME280;34335;51.566;6.994;2022-12-07T02:52:33;101078.66;;;2.72;100.00
48553;BME280;34335;51.566;6.994;2022-12-07T02:54:58;101066.81;;;2.76;100.00
48553;BME280;34335;51.566;6.994;2022-12-07T03:00:11;101083.47;;;2.63;100.00
48553;BME280;34335;51.566;6.994;2022-12-07T03:13:35;101082.75;;;2.44;100.00
48553;BME280;34335;51.566;6.994;2022-12-07T03:16:49;101077.97;;;2.31;100.00
48553;BME280;34335;51.566;6.994;2022-12-07T03:19:18;101082.41;;;2.35;100.00
48553;BME280;34335;51.566;6.994;2022-12-07T03:21:49;101078.81;;;2.31;100.00
48553;BME280;34335;51.566;6.994;2022-12-07T03:24:20;101087.28;;;2.29;100.00
48553;BME280;34335;51.566;6.994;2022-12-07T03:26:53;101086.34;;;2.27;100.00
48553;BME280;34335;51.566;6.994;2022-12-07T03:29:24;101083.03;;;2.29;100.00
48553;BME280;34335;51.566;6.994;2022-12-07T03:31:57;101075.16;;;2.25;100.00
48553;BME280;34335;51.566;6.994;2022-12-07T03:34:34;101078.47;;;2.22;100.00
48553;BME280;34335;51.566;6.994;2022-12-07T03:37:05;101070.75;;;2.22;100.00
48553;BME280;34335;51.566;6.994;2022-12-07T03:39:37;101071.47;;;2.18;100.00
48553;BME280;34335;51.566;6.994;2022-12-07T03:42:05;101065.34;;;2.14;100.00
48553;BME280;34335;51.566;6.994;2022-12-07T03:44:33;101067.09;;;2.15;100.00
48553;BME280;34335;51.566;6.994;2022-12-07T03:47:06;101067.09;;;2.15;100.00
48553;BME280;34335;51.566;6.994;2022-12-07T03:49:41;101068.78;;;2.15;100.00
48553;BME280;34335;51.566;6.994;2022-12-07T03:52:23;101061.91;;;2.14;100.00
48553;BME280;34335;51.566;6.994;2022-12-07T03:57:34;101063.34;;;2.07;100.00
48553;BME280;34335;51.566;6.994;2022-12-07T04:00:03;101067.44;;;2.02;100.00
48553;BME280;34335;51.566;6.994;2022-12-07T04:02:29;101065.00;;;2.05;100.00
48553;BME280;34335;51.566;6.994;2022-12-07T04:04:56;101069.31;;;2.06;100.00
48553;BME280;34335;51.566;6.994;2022-12-07T04:07:21;101071.03;;;2.07;100.00
48553;BME280;34335;51.566;6.994;2022-12-07T04:09:46;101070.19;;;2.07;100.00
48553;BME280;34335;51.566;6.994;2022-12-07T04:12:12;101068.72;;;2.13;100.00
48553;BME280;34335;51.566;6.994;2022-12-07T04:14:37;101060.78;;;2.07;100.00
48553;BME280;34335;51.566;6.994;2022-12-07T04:17:02;101064.81;;;2.00;100.00
48553;BME280;34335;51.566;6.994;2022-12-07T04:19:30;101065.63;;;1.99;100.00
48553;BME280;34335;51.566;6.994;2022-12-07T04:21:57;101073.31;;;1.99;100.00
48553;BME280;34335;51.566;6.994;2022-12-07T04:24:23;101068.09;;;1.98;100.00
48553;BME280;34335;51.566;6.994;2022-12-07T04:26:49;101069.56;;;1.91;100.00
48553;BME280;34335;51.566;6.994;2022-12-07T04:29:15;101071.97;;;1.86;100.00
48553;BME280;34335;51.566;6.994;2022-12-07T04:31:41;101064.94;;;1.82;100.00
48553;BME280;34335;51.566;6.994;2022-12-07T04:34:07;101066.00;;;1.88;100.00
48553;BME280;34335;51.566;6.994;2022-12-07T04:36:32;101066.00;;;1.88;100.00
48553;BME280;34335;51.566;6.994;2022-12-07T04:38:58;101066.56;;;1.80;100.00
48553;BME280;34335;51.566;6.994;2022-12-07T04:41:24;101069.94;;;1.79;100.00
48553;BME280;34335;51.566;6.994;2022-12-07T04:44:01;101068.13;;;1.77;100.00
48553;BME280;34335;51.566;6.994;2022-12-07T04:46:29;101067.25;;;1.76;100.00
48553;BME280;34335;51.566;6.994;2022-12-07T04:48:55;101065.69;;;1.80;100.00
48553;BME280;34335;51.566;6.994;2022-12-07T04:51:23;101065.69;;;1.80;100.00
48553;BME280;34335;51.566;6.994;2022-12-07T04:53:49;101066.56;;;1.80;100.00
48553;BME280;34335;51.566;6.994;2022-12-07T04:56:15;101070.19;;;1.85;100.00
48553;BME280;34335;51.566;6.994;2022-12-07T04:58:42;101063.00;;;1.77;100.00
48553;BME280;34335;51.566;6.994;2022-12-07T05:01:08;101060.81;;;1.86;100.00
48553;BME280;34335;51.566;6.994;2022-12-07T05:03:33;101063.00;;;1.77;100.00
48553;BME280;34335;51.566;6.994;2022-12-07T05:05:58;101059.66;;;1.79;100.00
48553;BME280;34335;51.566;6.994;2022-12-07T05:08:23;101056.19;;;1.77;100.00
48553;BME280;34335;51.566;6.994;2022-12-07T05:10:49;101055.44;;;1.80;100.00
48553;BME280;34335;51.566;6.994;2022-12-07T05:13:15;101052.78;;;1.78;100.00
48553;BME280;34335;51.566;6.994;2022-12-07T05:15:40;101049.31;;;1.76;100.00
48553;BME280;34335;51.566;6.994;2022-12-07T05:18:07;101045.94;;;1.77;100.00
48553;BME280;34335;51.566;6.994;2022-12-07T05:20:34;101049.41;;;1.79;100.00
48553;BME280;34335;51.566;6.994;2022-12-07T05:22:59;101054.53;;;1.79;100.00
48553;BME280;34335;51.566;6.994;2022-12-07T05:25:24;101062.06;;;1.75;100.00
48553;BME280;34335;51.566;6.994;2022-12-07T05:27:50;101066.28;;;1.73;100.00
48553;BME280;34335;51.566;6.994;2022-12-07T05:30:15;101066.44;;;1.77;100.00
48553;BME280;34335;51.566;6.994;2022-12-07T05:32:41;101052.69;;;1.75;100.00
48553;BME280;34335;51.566;6.994;2022-12-07T05:35:06;101061.25;;;1.76;100.00
48553;BME280;34335;51.566;6.994;2022-12-07T05:37:32;101062.25;;;1.79;100.00
48553;BME280;34335;51.566;6.994;2022-12-07T05:39:57;101063.00;;;1.77;100.00
48553;BME280;34335;51.566;6.994;2022-12-07T05:42:24;101060.44;;;1.77;100.00
48553;BME280;34335;51.566;6.994;2022-12-07T05:44:49;101055.50;;;1.81;100.00
48553;BME280;34335;51.566;6.994;2022-12-07T05:47:16;101054.91;;;1.89;100.00
48553;BME280;34335;51.566;6.994;2022-12-07T05:49:41;101053.91;;;1.85;100.00
48553;BME280;34335;51.566;6.994;2022-12-07T05:52:07;101048.88;;;1.86;100.00
48553;BME280;34335;51.566;6.994;2022-12-07T05:54:33;101050.50;;;1.84;100.00
48553;BME280;34335;51.566;6.994;2022-12-07T05:56:58;101047.78;;;1.81;100.00
48553;BME280;34335;51.566;6.994;2022-12-07T05:59:23;101044.78;;;1.92;100.00
48553;BME280;34335;51.566;6.994;2022-12-07T06:02:01;101047.31;;;1.90;100.00
48553;BME280;34335;51.566;6.994;2022-12-07T06:04:30;101049.47;;;2.02;100.00
48553;BME280;34335;51.566;6.994;2022-12-07T06:06:56;101046.94;;;2.03;100.00
48553;BME280;34335;51.566;6.994;2022-12-07T06:09:23;101054.00;;;2.09;100.00
48553;BME280;34335;51.566;6.994;2022-12-07T06:11:49;101050.06;;;2.17;100.00
48553;BME280;34335;51.566;6.994;2022-12-07T06:14:33;101047.41;;;2.14;100.00
48553;BME280;34335;51.566;6.994;2022-12-07T06:16:59;101043.66;;;2.06;100.00
48553;BME280;34335;51.566;6.994;2022-12-07T06:19:24;101051.97;;;2.00;100.00
48553;BME280;34335;51.566;6.994;2022-12-07T06:21:50;101054.59;;;2.02;100.00
48553;BME280;34335;51.566;6.994;2022-12-07T06:24:17;101054.59;;;2.02;100.00
48553;BME280;34335;51.566;6.994;2022-12-07T06:26:42;101052.91;;;2.02;100.00
48553;BME280;34335;51.566;6.994;2022-12-07T06:29:08;101056.13;;;1.97;100.00
48553;BME280;34335;51.566;6.994;2022-12-07T06:31:35;101054.38;;;1.96;100.00
48553;BME280;34335;51.566;6.994;2022-12-07T06:34:03;101049.91;;;1.92;100.00
48553;BME280;34335;51.566;6.994;2022-12-07T06:36:29;101055.03;;;1.92;100.00
48553;BME280;34335;51.566;6.994;2022-12-07T06:38:54;101054.06;;;1.88;100.00
48553;BME280;34335;51.566;6.994;2022-12-07T06:41:20;101054.81;;;1.85;100.00
48553;BME280;34335;51.566;6.994;2022-12-07T06:43:46;101047.78;;;1.81;100.00
48553;BME280;34335;51.566;6.994;2022-12-07T06:46:11;101054.00;;;1.86;100.00
48553;BME280;34335;51.566;6.994;2022-12-07T06:48:37;101052.78;;;1.78;100.00
48553;BME280;34335;51.566;6.994;2022-12-07T06:51:02;101052.69;;;1.75;100.00
48553;BME280;34335;51.566;6.994;2022-12-07T06:53:27;101051.75;;;1.73;100.00
48553;BME280;34335;51.566;6.994;2022-12-07T06:55:53;101069.44;;;1.67;100.00
48553;BME280;34335;51.566;6.994;2022-12-07T06:58:18;101062.47;;;1.64;100.00
48553;BME280;34335;51.566;6.994;2022-12-07T07:00:44;101063.38;;;1.65;100.00
48553;BME280;34335;51.566;6.994;2022-12-07T07:03:09;101070.94;;;1.62;100.00
48553;BME280;34335;51.566;6.994;2022-12-07T07:05:35;101063.44;;;1.66;100.00
48553;BME280;34335;51.566;6.994;2022-12-07T07:08:01;101064.31;;;1.67;100.00
48553;BME280;34335;51.566;6.994;2022-12-07T07:10:27;101067.56;;;1.63;100.00
48553;BME280;34335;51.566;6.994;2022-12-07T07:12:53;101082.94;;;1.63;100.00
48553;BME280;34335;51.566;6.994;2022-12-07T07:15:18;101075.13;;;1.60;100.00
48553;BME280;34335;51.566;6.994;2022-12-07T07:17:43;101074.44;;;1.64;100.00
48553;BME280;34335;51.566;6.994;2022-12-07T07:20:09;101076.06;;;1.62;100.00
48553;BME280;34335;51.566;6.994;2022-12-07T07:22:34;101069.44;;;1.67;100.00
48553;BME280;34335;51.566;6.994;2022-12-07T07:25:00;101069.56;;;1.70;100.00
48553;BME280;34335;51.566;6.994;2022-12-07T07:27:25;101075.31;;;1.64;100.00
48553;BME280;34335;51.566;6.994;2022-12-07T07:29:50;101077.69;;;1.60;100.00
48553;BME280;34335;51.566;6.994;2022-12-07T07:32:16;101082.19;;;1.65;100.00
48553;BME280;34335;51.566;6.994;2022-12-07T07:34:41;101080.53;;;1.66;100.00
48553;BME280;34335;51.566;6.994;2022-12-07T07:37:06;101073.81;;;1.69;100.00
48553;BME280;34335;51.566;6.994;2022-12-07T07:39:32;101077.19;;;1.68;100.00
48553;BME280;34335;51.566;6.994;2022-12-07T07:41:57;101074.69;;;1.70;100.00
48553;BME280;34335;51.566;6.994;2022-12-07T07:44:22;101079.94;;;1.73;100.00
48553;BME280;34335;51.566;6.994;2022-12-07T07:46:47;101080.72;;;1.70;100.00
48553;BME280;34335;51.566;6.994;2022-12-07T07:49:13;101085.66;;;1.66;100.00
48553;BME280;34335;51.566;6.994;2022-12-07T07:51:38;101079.00;;;1.71;100.00
48553;BME280;34335;51.566;6.994;2022-12-07T07:54:03;101078.94;;;1.69;100.00
48553;BME280;34335;51.566;6.994;2022-12-07T07:56:29;101074.00;;;1.74;100.00
48553;BME280;34335;51.566;6.994;2022-12-07T07:58:54;101071.44;;;1.74;100.00
48553;BME280;34335;51.566;6.994;2022-12-07T08:01:20;101073.97;;;1.73;100.00
48553;BME280;34335;51.566;6.994;2022-12-07T08:03:48;101083.47;;;1.75;100.00
48553;BME280;34335;51.566;6.994;2022-12-07T08:06:14;101076.75;;;1.79;100.00
48553;BME280;34335;51.566;6.994;2022-12-07T08:08:39;101076.81;;;1.80;100.00
48553;BME280;34335;51.566;6.994;2022-12-07T08:11:06;101078.56;;;1.81;100.00
48553;BME280;34335;51.566;6.994;2022-12-07T08:13:32;101071.69;;;1.80;100.00
48553;BME280;34335;51.566;6.994;2022-12-07T08:15:57;101083.84;;;1.84;100.00
48553;BME280;34335;51.566;6.994;2022-12-07T08:18:23;101082.06;;;1.83;100.00
48553;BME280;34335;51.566;6.994;2022-12-07T08:20:48;101085.63;;;1.87;100.00
48553;BME280;34335;51.566;6.994;2022-12-07T08:23:13;101093.97;;;1.81;100.00
48553;BME280;34335;51.566;6.994;2022-12-07T08:25:39;101095.94;;;1.89;100.00
48553;BME280;34335;51.566;6.994;2022-12-07T08:28:05;101091.00;;;1.93;100.00
48553;BME280;34335;51.566;6.994;2022-12-07T08:30:31;101097.84;;;1.93;100.00
48553;BME280;34335;51.566;6.994;2022-12-07T08:32:57;101091.31;;;2.01;100.00
48553;BME280;34335;51.566;6.994;2022-12-07T08:35:22;101091.75;;;1.91;100.00
48553;BME280;34335;51.566;6.994;2022-12-07T08:37:48;101089.28;;;1.92;100.00
48553;BME280;34335;51.566;6.994;2022-12-07T08:40:14;101093.56;;;1.93;100.00
48553;BME280;34335;51.566;6.994;2022-12-07T08:42:47;101097.97;;;1.96;100.00
48553;BME280;34335;51.566;6.994;2022-12-07T08:45:14;101100.59;;;1.97;100.00
48553;BME280;34335;51.566;6.994;2022-12-07T08:47:48;101102.34;;;1.98;100.00
48553;BME280;34335;51.566;6.994;2022-12-07T08:50:14;101101.34;;;1.95;100.00
48553;BME280;34335;51.566;6.994;2022-12-07T08:52:41;101102.28;;;1.97;100.00
48553;BME280;34335;51.566;6.994;2022-12-07T08:55:09;101105.97;;;2.03;100.00
48553;BME280;34335;51.566;6.994;2022-12-07T08:57:36;101105.97;;;2.03;100.00
48553;BME280;34335;51.566;6.994;2022-12-07T09:00:04;101106.28;;;2.11;100.00
48553;BME280;34335;51.566;6.994;2022-12-07T09:02:31;101095.97;;;2.10;100.00
48553;BME280;34335;51.566;6.994;2022-12-07T09:04:56;101096.16;;;2.14;100.00
48553;BME280;34335;51.566;6.994;2022-12-07T09:07:21;101097.56;;;2.29;100.00
48553;BME280;34335;51.566;6.994;2022-12-07T09:09:47;101096.88;;;2.33;100.00
48553;BME280;34335;51.566;6.994;2022-12-07T09:12:12;101098.09;;;2.43;100.00
48553;BME280;34335;51.566;6.994;2022-12-07T09:14:37;101099.88;;;2.45;100.00
48553;BME280;34335;51.566;6.994;2022-12-07T09:17:11;101105.28;;;2.52;100.00
48553;BME280;34335;51.566;6.994;2022-12-07T09:19:37;101110.88;;;2.41;100.00
48553;BME280;34335;51.566;6.994;2022-12-07T09:22:03;101101.63;;;2.46;100.00
48553;BME280;34335;51.566;6.994;2022-12-07T09:24:30;101105.97;;;2.47;100.00
48553;BME280;34335;51.566;6.994;2022-12-07T09:26:55;101095.88;;;2.52;100.00
48553;BME280;34335;51.566;6.994;2022-12-07T09:29:20;101103.88;;;2.60;100.00
48553;BME280;34335;51.566;6.994;2022-12-07T09:31:46;101102.94;;;2.58;100.00
48553;BME280;34335;51.566;6.994;2022-12-07T09:34:11;101098.78;;;2.61;100.00
48553;BME280;34335;51.566;6.994;2022-12-07T09:36:36;101098.97;;;2.66;100.00
48553;BME280;34335;51.566;6.994;2022-12-07T09:39:02;101095.56;;;2.67;100.00
48553;BME280;34335;51.566;6.994;2022-12-07T09:41:30;101096.38;;;2.66;100.00
48553;BME280;34335;51.566;6.994;2022-12-07T09:44:06;101094.88;;;2.71;100.00
48553;BME280;34335;51.566;6.994;2022-12-07T09:46:36;101090.59;;;2.72;100.00
48553;BME280;34335;51.566;6.994;2022-12-07T09:49:03;101090.78;;;2.76;100.00
48553;BME280;34335;51.566;6.994;2022-12-07T09:51:29;101080.75;;;2.83;100.00
48553;BME280;34335;51.566;6.994;2022-12-07T09:53:57;101079.75;;;2.79;100.00
48553;BME280;34335;51.566;6.994;2022-12-07T09:56:24;101083.25;;;2.81;100.00
48553;BME280;34335;51.566;6.994;2022-12-07T09:58:57;101084.31;;;2.86;100.00
48553;BME280;34335;51.566;6.994;2022-12-07T10:01:23;101087.66;;;2.84;100.00
48553;BME280;34335;51.566;6.994;2022-12-07T10:03:54;101085.97;;;2.86;100.00
48553;BME280;34335;51.566;6.994;2022-12-07T10:06:20;101079.94;;;2.84;100.00
48553;BME280;34335;51.566;6.994;2022-12-07T10:08:46;101074.97;;;2.88;100.00
48553;BME280;34335;51.566;6.994;2022-12-07T10:11:11;101088.03;;;2.94;100.00
48553;BME280;34335;51.566;6.994;2022-12-07T10:13:48;101086.56;;;3.01;100.00
48553;BME280;34335;51.566;6.994;2022-12-07T10:18:54;101083.50;;;3.11;100.00
48553;BME280;34335;51.566;6.994;2022-12-07T10:21:24;101083.88;;;3.22;100.00
48553;BME280;34335;51.566;6.994;2022-12-07T10:24:14;101079.66;;;3.24;100.00
48553;BME280;34335;51.566;6.994;2022-12-07T10:29:20;101079.00;;;3.30;100.00
48553;BME280;34335;51.566;6.994;2022-12-07T10:32:00;101067.16;;;3.35;100.00
48553;BME280;34335;51.566;6.994;2022-12-07T10:34:34;101063.91;;;3.39;100.00
48553;BME280;34335;51.566;6.994;2022-12-07T10:39:50;101054.63;;;3.45;100.00
48553;BME280;34335;51.566;6.994;2022-12-07T10:42:23;101052.31;;;3.52;100.00
48553;BME280;34335;51.566;6.994;2022-12-07T10:45:07;101046.50;;;3.58;100.00
48553;BME280;34335;51.566;6.994;2022-12-07T10:47:56;101050.06;;;3.62;100.00
48553;BME280;34335;51.566;6.994;2022-12-07T10:53:21;101037.50;;;3.71;100.00
48553;BME280;34335;51.566;6.994;2022-12-07T10:58:59;101038.13;;;3.91;100.00
48553;BME280;34335;51.566;6.994;2022-12-07T11:01:41;101039.69;;;3.86;100.00
48553;BME280;34335;51.566;6.994;2022-12-07T11:04:31;101034.50;;;3.84;100.00
48553;BME280;34335;51.566;6.994;2022-12-07T11:12:32;101037.69;;;4.04;100.00
48553;BME280;34335;51.566;6.994;2022-12-07T11:15:17;101026.75;;;4.12;100.00
48553;BME280;34335;51.566;6.994;2022-12-07T11:20:17;101019.22;;;4.18;100.00
48553;BME280;34335;51.566;6.994;2022-12-07T11:25:39;101015.38;;;4.34;100.00
48553;BME280;34335;51.566;6.994;2022-12-07T11:31:20;101010.72;;;4.20;100.00
48553;BME280;34335;51.566;6.994;2022-12-07T11:34:11;101012.19;;;4.12;100.00
48553;BME280;34335;51.566;6.994;2022-12-07T11:36:43;101003.66;;;4.13;100.00
48553;BME280;34335;51.566;6.994;2022-12-07T11:39:26;101004.69;;;4.20;100.00
48553;BME280;34335;51.566;6.994;2022-12-07T11:42:00;101002.38;;;4.29;100.00
48553;BME280;34335;51.566;6.994;2022-12-07T11:44:47;100998.19;;;4.33;100.00
48553;BME280;34335;51.566;6.994;2022-12-07T11:47:22;100996.78;;;4.43;100.00
48553;BME280;34335;51.566;6.994;2022-12-07T11:49:58;100996.03;;;4.47;100.00
48553;BME280;34335;51.566;6.994;2022-12-07T11:52:45;100994.19;;;4.43;100.00
48553;BME280;34335;51.566;6.994;2022-12-07T11:55:23;100997.91;;;4.52;100.00
48553;BME280;34335;51.566;6.994;2022-12-07T11:57:58;100991.72;;;4.46;100.00
48553;BME280;34335;51.566;6.994;2022-12-07T12:00:27;100992.53;;;4.45;100.00
48553;BME280;34335;51.566;6.994;2022-12-07T12:03:03;100986.56;;;4.46;100.00
48553;BME280;34335;51.566;6.994;2022-12-07T12:05:30;100986.25;;;4.35;100.00
48553;BME280;34335;51.566;6.994;2022-12-07T12:08:16;100983.88;;;4.41;100.00
48553;BME280;34335;51.566;6.994;2022-12-07T12:10:51;100980.47;;;4.42;100.00
48553;BME280;34335;51.566;6.994;2022-12-07T12:19:19;100984.97;;;4.51;100.00
48553;BME280;34335;51.566;6.994;2022-12-07T12:21:53;100979.94;;;4.54;100.00
48553;BME280;34335;51.566;6.994;2022-12-07T12:24:23;100979.22;;;4.60;100.00
48553;BME280;34335;51.566;6.994;2022-12-07T12:26:53;100970.75;;;4.64;100.00
48553;BME280;34335;51.566;6.994;2022-12-07T12:29:35;100971.00;;;4.73;100.00
48553;BME280;34335;51.566;6.994;2022-12-07T12:42:56;100960.69;;;4.73;100.00
48553;BME280;34335;51.566;6.994;2022-12-07T12:45:28;100955.63;;;4.76;100.00
48553;BME280;34335;51.566;6.994;2022-12-07T12:53:21;100944.13;;;4.63;100.00
48553;BME280;34335;51.566;6.994;2022-12-07T12:56:07;100955.38;;;4.67;100.00
48553;BME280;34335;51.566;6.994;2022-12-07T12:58:39;100942.38;;;4.62;100.00
48553;BME280;34335;51.566;6.994;2022-12-07T13:01:33;100948.38;;;4.63;100.00
48553;BME280;34335;51.566;6.994;2022-12-07T13:04:02;100940.03;;;4.72;100.00
48553;BME280;34335;51.566;6.994;2022-12-07T13:06:38;100951.03;;;4.64;100.00
48553;BME280;34335;51.566;6.994;2022-12-07T13:09:03;100951.31;;;4.77;100.00
48553;BME280;34335;51.566;6.994;2022-12-07T13:11:36;100945.31;;;4.76;100.00
48553;BME280;34335;51.566;6.994;2022-12-07T13:14:42;100949.41;;;4.70;100.00
48553;BME280;34335;51.566;6.994;2022-12-07T13:17:55;100934.91;;;4.73;100.00
48553;BME280;34335;51.566;6.994;2022-12-07T13:19:54;100938.38;;;4.74;100.00
48553;BME280;34335;51.566;6.994;2022-12-07T13:22:36;100935.84;;;4.75;100.00
48553;BME280;34335;51.566;6.994;2022-12-07T13:27:59;100939.44;;;4.82;100.00
48553;BME280;34335;51.566;6.994;2022-12-07T13:30:27;100938.16;;;4.66;100.00
48553;BME280;34335;51.566;6.994;2022-12-07T13:32:55;100941.59;;;4.66;100.00
48553;BME280;34335;51.566;6.994;2022-12-07T13:35:34;100950.56;;;4.49;100.00
48553;BME280;34335;51.566;6.994;2022-12-07T13:38:05;100934.59;;;4.30;100.00
48553;BME280;34335;51.566;6.994;2022-12-07T13:40:31;100928.34;;;4.20;100.00
48553;BME280;34335;51.566;6.994;2022-12-07T13:42:58;100931.19;;;4.30;100.00
48553;BME280;34335;51.566;6.994;2022-12-07T13:45:27;100920.63;;;4.20;100.00
48553;BME280;34335;51.566;6.994;2022-12-07T13:48:42;100913.16;;;4.30;100.00
48553;BME280;34335;51.566;6.994;2022-12-07T13:51:17;100908.69;;;4.24;100.00
48553;BME280;34335;51.566;6.994;2022-12-07T13:53:47;100905.84;;;4.45;100.00
48553;BME280;34335;51.566;6.994;2022-12-07T13:56:13;100903.44;;;4.51;100.00
48553;BME280;34335;51.566;6.994;2022-12-07T13:58:39;100899.00;;;4.46;100.00
48553;BME280;34335;51.566;6.994;2022-12-07T14:01:05;100895.34;;;4.38;100.00
48553;BME280;34335;51.566;6.994;2022-12-07T14:03:35;100879.91;;;4.38;100.00
48553;BME280;34335;51.566;6.994;2022-12-07T14:06:26;100890.00;;;4.31;100.00
48553;BME280;34335;51.566;6.994;2022-12-07T14:09:15;100886.72;;;4.37;100.00
48553;BME280;34335;51.566;6.994;2022-12-07T14:11:41;100888.38;;;4.35;100.00
48553;BME280;34335;51.566;6.994;2022-12-07T14:14:14;100885.19;;;4.42;100.00
48553;BME280;34335;51.566;6.994;2022-12-07T14:16:41;100875.63;;;4.40;100.00